Data for 06/18/2014

Time Sea-Level Adjusted Pressure Absolute Pressure Temperature Relative Humidity Dew Point   
(mb) (inHg) (mb) (inHg) (C) (F) (%) (C) (F)
00:05 1016 30 845 24.95 6.3 43.3 85 3.9 39
00:10 1016 30 845 24.95 6.3 43.4 84 3.9 39
00:15 1016 30 845 24.95 6.3 43.4 83 3.6 38.5
00:20 1016 30 845 24.95 6.3 43.4 84 3.8 38.9
00:25 1016 30 845 24.95 6.2 43.1 84 3.7 38.7
00:30 1016 30 845 24.95 5.9 42.7 86 3.8 38.8
00:35 1016 30 845 24.95 5.7 42.2 85 3.4 38.1
00:40 1016 30 845 24.95 5.6 42 86 3.5 38.3
00:45 1016 30 845 24.95 5.5 42 85 3.3 37.9
00:50 1016 30 845 24.95 5.6 42 85 3.2 37.8
00:55 1016 30 845 24.95 5.6 42.1 84 3.2 37.7
01:00 1016 30 845 24.95 5.6 42.1 87 3.7 38.6
01:05 1016 30 845 24.95 5.5 41.9 88 3.7 38.6
01:10 1016 30 845 24.95 5.5 41.8 86 3.3 38
01:15 1016 30 845 24.95 5.5 41.8 86 3.4 38
01:20 1016 30 845 24.95 5.5 41.8 86 3.3 38
01:25 1016 30 845 24.95 5.4 41.8 86 3.4 38
01:30 1016 30 845 24.95 5.4 41.8 85 3.1 37.6
01:35 1016 30 845 24.95 5.5 41.8 85 3.1 37.6
01:40 1016 30 845 24.95 5.5 42 86 3.3 38
01:45 1015 29.97 845 24.95 5.5 41.9 85 3.2 37.8
01:50 1015 29.97 845 24.95 5.7 42.2 85 3.4 38.1
01:55 1015 29.97 845 24.95 5.8 42.5 84 3.3 37.9
02:00 1015 29.97 845 24.95 5.9 42.6 84 3.4 38.1
02:05 1015 29.97 845 24.95 6 42.9 83 3.5 38.2
02:10 1015 29.97 845 24.95 6 42.9 83 3.4 38.2
02:15 1015 29.97 845 24.95 6 42.8 83 3.4 38.2
02:20 1016 30 845 24.95 6 42.7 83 3.3 38
02:25 1016 30 845 24.95 5.6 42.1 84 3.1 37.7
02:30 1016 30 845 24.95 5.7 42.2 85 3.3 38
02:35 1016 30 845 24.95 5.7 42.3 86 3.6 38.4
02:40 1016 30 845 24.95 5.6 42.1 87 3.6 38.5
02:45 1016 30 845 24.95 5.5 41.9 87 3.5 38.3
02:50 1016 30 845 24.95 5.4 41.8 86 3.3 37.9
02:55 1015 29.97 845 24.95 5.5 42 85 3.3 37.9
03:00 1015 29.97 844 24.92 5.7 42.2 85 3.4 38.1
03:05 1015 29.97 844 24.92 5.7 42.2 85 3.4 38.1
03:10 1015 29.97 844 24.92 5.7 42.2 86 3.5 38.3
03:15 1015 29.97 844 24.92 5.7 42.2 85 3.4 38.1
03:20 1015 29.97 844 24.92 5.7 42.3 85 3.5 38.3
03:25 1015 29.97 844 24.92 5.7 42.2 86 3.5 38.2
03:30 1015 29.97 844 24.92 5.6 42.1 85 3.3 37.9
03:35 1015 29.97 844 24.92 5.6 42.1 84 3.2 37.7
03:40 1015 29.97 844 24.92 5.7 42.2 84 3.2 37.8
03:45 1015 29.97 844 24.92 5.6 42.2 84 3.2 37.7
03:50 1015 29.97 844 24.92 5.7 42.2 85 3.4 38.2
03:55 1015 29.97 844 24.92 5.7 42.2 85 3.4 38.1
04:00 1015 29.97 845 24.95 5.6 42.1 86 3.5 38.3
04:05 1015 29.97 844 24.92 5.6 42 86 3.4 38.2
04:10 1015 29.97 844 24.92 5.5 41.9 86 3.4 38.1
04:15 1015 29.97 844 24.92 5.5 41.9 85 3.2 37.8
04:20 1015 29.97 844 24.92 5.5 42 85 3.2 37.8
04:25 1015 29.97 844 24.92 5.5 41.9 85 3.2 37.7
04:30 1015 29.97 844 24.92 5.5 41.8 84 3 37.4
04:35 1015 29.97 844 24.92 5.5 41.9 84 3 37.5
04:40 1015 29.97 844 24.92 5.5 41.9 83 2.9 37.2
04:45 1015 29.97 844 24.92 5.5 41.9 82 2.7 36.9
04:50 1015 29.97 844 24.92 5.5 41.9 83 2.8 37.1
04:55 1015 29.97 844 24.92 5.5 42 83 2.9 37.3
05:00 1015 29.97 844 24.92 5.5 42 84 3 37.4
05:05 1015 29.97 844 24.92 5.4 41.8 85 3.1 37.6
05:10 1015 29.97 845 24.95 5.4 41.7 85 3 37.4
05:15 1015 29.97 845 24.95 5.4 41.7 85 3 37.5
05:20 1015 29.97 845 24.95 5.4 41.7 85 3.1 37.5
05:25 1015 29.97 845 24.95 5.4 41.8 85 3.1 37.7
05:30 1015 29.97 845 24.95 5.4 41.8 86 3.2 37.8
05:35 1015 29.97 845 24.95 5.5 41.9 86 3.3 38
05:40 1015 29.97 845 24.95 5.6 42 86 3.5 38.2
05:45 1015 29.97 844 24.92 5.5 41.9 87 3.5 38.4
05:50 1015 29.97 844 24.92 5.4 41.7 88 3.5 38.4
05:55 1015 29.97 844 24.92 5.5 41.8 87 3.4 38.2
06:00 1015 29.97 844 24.92 5.6 42 86 3.5 38.3
06:05 1015 29.97 844 24.92 5.7 42.3 87 3.7 38.6
06:10 1015 29.97 844 24.92 5.9 42.5 86 3.8 38.8
06:15 1015 29.97 844 24.92 5.8 42.4 87 3.7 38.7
06:20 1015 29.97 844 24.92 5.9 42.5 86 3.7 38.6
06:25 1015 29.97 844 24.92 6.1 42.9 85 3.7 38.6
06:30 1015 29.97 844 24.92 6.2 43.1 84 3.6 38.5
06:35 1015 29.97 845 24.95 6.4 43.5 85 4 39.1
06:40 1015 29.97 845 24.95 6.6 43.9 85 4.3 39.8
06:45 1015 29.97 845 24.95 7.1 44.7 81 4 39.3
06:50 1015 29.97 845 24.95 7.4 45.2 78 3.7 38.7
06:55 1015 29.97 845 24.95 7.3 45.1 79 3.8 38.9
07:00 1015 29.97 845 24.95 7.2 44.9 78 3.6 38.5
07:05 1015 29.97 845 24.95 7.3 45.1 78 3.7 38.7
07:10 1016 30 845 24.95 7.2 44.9 78 3.6 38.5
07:15 1016 30 845 24.95 7.1 44.7 77 3.3 37.9
07:20 1016 30 845 24.95 6.9 44.4 79 3.6 38.5
07:25 1016 30 845 24.95 6.8 44.3 78 3.2 37.8
07:30 1016 30 845 24.95 6.8 44.2 79 3.4 38.2
07:35 1016 30 845 24.95 6.6 43.9 81 3.6 38.4
07:40 1016 30 845 24.95 6.3 43.3 83 3.7 38.6
07:45 1016 30 845 24.95 5.6 42.1 84 3 37.5
07:50 1016 30 845 24.95 5 41 85 2.7 36.9
07:55 1016 30 845 24.95 4.7 40.5 87 2.7 36.9
08:00 1016 30 845 24.95 4.7 40.5 87 2.8 37
08:05 1016 30 845 24.95 4.7 40.5 87 2.7 36.8
08:10 1016 30 845 24.95 4.5 40.1 88 2.6 36.7
08:15 1016 30 845 24.95 4.6 40.2 88 2.7 36.9
08:20 1016 30 845 24.95 4.5 40.1 89 2.9 37.3
08:25 1016 30 845 24.95 4.7 40.5 88 2.9 37.1
08:30 1016 30 845 24.95 5 41 87 3.1 37.6
08:35 1016 30 845 24.95 5.3 41.5 86 3.1 37.7
08:40 1016 30 845 24.95 5.3 41.6 85 3 37.4
08:45 1016 30 845 24.95 5.4 41.7 85 3 37.4
08:50 1016 30 846 24.98 5.5 42 83 2.9 37.2
08:55 1016 30 846 24.98 5.5 42 85 3.3 37.9
09:00 1016 30 846 24.98 5.5 41.8 85 3.1 37.5
09:05 1016 30 846 24.98 5.1 41.2 86 2.9 37.2
09:10 1016 30 845 24.95 5.1 41.2 85 2.8 37.1
09:15 1016 30 845 24.95 5 41.1 88 3.1 37.7
09:20 1016 30 845 24.95 4.8 40.7 85 2.5 36.6
09:25 1016 30 845 24.95 4.7 40.4 85 2.4 36.3
09:30 1016 30 845 24.95 4.8 40.6 87 2.7 36.9
09:35 1016 30 846 24.98 4.6 40.2 87 2.5 36.6
09:40 1016 30 846 24.98 4.3 39.8 87 2.4 36.4
09:45 1016 30 846 24.98 4.5 40.1 86 2.3 36.2
09:50 1016 30 846 24.98 4.4 39.8 88 2.5 36.5
09:55 1016 30 846 24.98 4.3 39.8 87 2.4 36.3
10:00 1016 30 846 24.98 4.5 40.2 85 2.3 36.1
10:05 1016 30 845 24.95 4.8 40.6 86 2.6 36.7
10:10 1016 30 846 24.98 4.9 40.9 87 2.9 37.2
10:15 1016 30 846 24.98 5.1 41.2 83 2.4 36.4
10:20 1016 30 846 24.98 5.3 41.6 83 2.6 36.7
10:25 1016 30 845 24.95 5.5 42 83 2.9 37.2
10:30 1016 30 845 24.95 5.7 42.3 84 3.2 37.8
10:35 1016 30 845 24.95 6.4 43.6 81 3.4 38.1
10:40 1016 30 845 24.95 7.1 44.7 76 3.1 37.6
10:45 1016 30 845 24.95 7.7 45.9 74 3.3 38
10:50 1016 30 845 24.95 8.2 46.7 73 3.6 38.5
10:55 1016 30 845 24.95 8.3 46.9 72 3.5 38.4
11:00 1016 30 845 24.95 8.1 46.5 72 3.3 37.9
11:05 1016 30 845 24.95 8.2 46.7 70 3.1 37.6
11:10 1016 30 845 24.95 8.8 47.9 67 3.1 37.6
11:15 1016 30 845 24.95 9.3 48.8 62 2.5 36.6
11:20 1016 30 845 24.95 10.1 50.1 61 2.9 37.2
11:25 1016 30 845 24.95 10.6 51 57 2.4 36.4
11:30 1016 30 845 24.95 10.4 50.7 58 2.5 36.5
11:35 1016 30 845 24.95 10.7 51.2 54 1.9 35.4
11:40 1016 30 845 24.95 10.9 51.6 54 1.9 35.4
11:45 1016 30 845 24.95 10.6 51.1 58 2.7 36.9
11:50 1016 30 845 24.95 10.7 51.2 54 1.9 35.4
11:55 1016 30 845 24.95 11.4 52.5 55 2.8 37.1
12:00 1016 30 845 24.95 10.8 51.4 54 1.9 35.4
12:05 1016 30 845 24.95 10.3 50.6 55 1.8 35.2
12:10 1015 29.97 845 24.95 10.1 50.2 55 1.5 34.6
12:15 1015 29.97 845 24.95 10.7 51.3 56 2.5 36.4
12:20 1015 29.97 845 24.95 10.9 51.6 55 2.2 35.9
12:25 1015 29.97 845 24.95 10.4 50.7 56 2 35.6
12:30 1015 29.97 845 24.95 10.7 51.3 54 1.8 35.2
12:35 1015 29.97 845 24.95 10.7 51.2 54 1.7 35.1
12:40 1015 29.97 844 24.92 11.3 52.4 51 1.5 34.7
12:45 1015 29.97 844 24.92 11.5 52.7 50 1.5 34.6
12:50 1015 29.97 844 24.92 12.1 53.8 45 0.6 33.2
12:55 1015 29.97 844 24.92 12.7 54.9 43 0.6 33.1
13:00 1015 29.97 844 24.92 12.8 55 45 1.2 34.1
13:05 1015 29.97 844 24.92 13.2 55.8 36 -1.5 29.3
13:10 1015 29.97 844 24.92 12.5 54.6 35 -2.3 27.8
13:15 1015 29.97 844 24.92 12.7 54.8 33 -3.1 26.3
13:20 1015 29.97 844 24.92 12.4 54.3 36 -2.3 27.8
13:25 1015 29.97 844 24.92 12.5 54.5 38 -1.4 29.4
13:30 1015 29.97 844 24.92 12.8 55 35 -2.2 28
13:35 1015 29.97 844 24.92 13.2 55.8 34 -2.3 27.8
13:40 1015 29.97 844 24.92 13.1 55.6 35 -1.9 28.6
13:45 1015 29.97 844 24.92 13.1 55.5 36 -1.5 29.3
13:50 1015 29.97 844 24.92 12.9 55.1 35 -2 28.4
13:55 1015 29.97 844 24.92 13.2 55.7 31 -3.4 25.9
14:00 1015 29.97 844 24.92 13 55.5 34 -2.4 27.7
14:05 1015 29.97 844 24.92 12.9 55.2 33 -3 26.6
14:10 1015 29.97 844 24.92 13.1 55.7 33 -2.8 27
14:15 1015 29.97 844 24.92 13.3 56 31 -3.2 26.2
14:20 1015 29.97 844 24.92 13.6 56.5 30 -3.4 25.9
14:25 1015 29.97 844 24.92 13.8 56.8 34 -1.9 28.6
14:30 1015 29.97 844 24.92 13.2 55.8 34 -2.3 27.8
14:35 1015 29.97 844 24.92 13.8 56.9 30 -3.3 26.1
14:40 1015 29.97 844 24.92 14.7 58.5 29 -2.9 26.8
14:45 1015 29.97 844 24.92 14.8 58.6 28 -3.4 25.8
14:50 1015 29.97 844 24.92 14 57.3 31 -2.9 26.7
14:55 1015 29.97 844 24.92 14 57.2 31 -2.8 27
15:00 1015 29.97 844 24.92 13.6 56.4 30 -3.7 25.3
15:05 1015 29.97 844 24.92 13.5 56.2 33 -2.3 27.9
15:10 1015 29.97 844 24.92 13.6 56.4 32 -2.8 26.9
15:15 1015 29.97 844 24.92 13.5 56.4 32 -2.7 27.1
15:20 1015 29.97 844 24.92 13.9 57.1 33 -2 28.4
15:25 1015 29.97 844 24.92 14.1 57.3 32 -2.2 28
15:30 1015 29.97 844 24.92 13.7 56.7 33 -2.3 27.9
15:35 1015 29.97 844 24.92 14 57.3 31 -2.6 27.3
15:40 1015 29.97 844 24.92 14.2 57.6 33 -1.9 28.6
15:45 1015 29.97 844 24.92 13.7 56.7 33 -2 28.4
15:50 1015 29.97 844 24.92 13.7 56.7 32 -2.6 27.4
15:55 1015 29.97 844 24.92 13.9 57 32 -2.3 27.8
16:00 1015 29.97 844 24.92 13.7 56.6 32 -2.5 27.6
16:05 1015 29.97 844 24.92 13.8 56.9 33 -2 28.4
16:10 1015 29.97 844 24.92 14 57.1 35 -1.2 29.9
16:15 1015 29.97 844 24.92 14 57.2 36 -0.6 31
16:20 1015 29.97 844 24.92 13.8 56.9 36 -1.1 30.1
16:25 1015 29.97 844 24.92 13.8 56.9 34 -1.8 28.7
16:30 1015 29.97 844 24.92 13.8 56.8 34 -1.8 28.7
16:35 1015 29.97 844 24.92 13.7 56.7 33 -2 28.3
16:40 1015 29.97 844 24.92 13.7 56.7 33 -2.3 27.8
16:45 1015 29.97 844 24.92 13.6 56.4 36 -1.3 29.7
16:50 1015 29.97 844 24.92 13.7 56.6 36 -1.2 29.9
16:55 1015 29.97 844 24.92 13.9 57 33 -1.9 28.5
17:00 1015 29.97 844 24.92 13.9 57 33 -1.9 28.5
17:05 1015 29.97 844 24.92 14 57.3 35 -1.2 29.8
17:10 1015 29.97 844 24.92 14 57.2 35 -1.1 30
17:15 1015 29.97 844 24.92 13.7 56.6 34 -1.8 28.8
17:20 1015 29.97 844 24.92 13.6 56.5 35 -1.5 29.3
17:25 1015 29.97 844 24.92 13.5 56.4 36 -1.3 29.7
17:30 1015 29.97 844 24.92 13.5 56.3 35 -1.5 29.4
17:35 1015 29.97 844 24.92 13.5 56.2 35 -1.5 29.3
17:40 1015 29.97 844 24.92 13.5 56.2 34 -2.2 28.1
17:45 1015 29.97 844 24.92 13.5 56.4 35 -1.6 29.1
17:50 1015 29.97 844 24.92 13.5 56.3 36 -1.4 29.5
17:55 1015 29.97 844 24.92 13.5 56.3 36 -1.2 29.8
18:00 1015 29.97 844 24.92 13.4 56 36 -1.4 29.5
18:05 1015 29.97 844 24.92 13.3 55.9 36 -1.3 29.7
18:10 1015 29.97 844 24.92 13.2 55.8 36 -1.3 29.7
18:15 1015 29.97 844 24.92 13.2 55.7 36 -1.6 29.2
18:20 1015 29.97 844 24.92 13.1 55.6 37 -1 30.1
18:25 1015 29.97 844 24.92 13 55.4 37 -1.4 29.6
18:30 1015 29.97 844 24.92 12.9 55.3 36 -1.6 29.2
18:35 1015 29.97 845 24.95 12.8 55.1 36 -1.8 28.8
18:40 1015 29.97 845 24.95 12.8 55 38 -1.2 29.8
18:45 1015 29.97 845 24.95 12.7 54.8 39 -0.8 30.5
18:50 1016 30 845 24.95 12.5 54.5 40 -0.8 30.6
18:55 1016 30 845 24.95 12.5 54.5 40 -0.6 30.9
19:00 1016 30 845 24.95 12.4 54.4 40 -0.6 31
19:05 1016 30 845 24.95 12.4 54.4 42 -0.1 31.9
19:10 1016 30 845 24.95 11.6 52.9 57 3.5 38.2
19:15 1016 30 845 24.95 9.9 49.8 66 4 39.1
19:20 1016 30 845 24.95 9 48.2 70 3.9 39
19:25 1016 30 845 24.95 8.5 47.3 73 4 39.1
19:30 1016 30 845 24.95 8.2 46.8 76 4.2 39.6
19:35 1016 30 846 24.98 8.1 46.6 76 4.2 39.6
19:40 1016 30 846 24.98 8 46.3 79 4.5 40.2
19:45 1016 30 846 24.98 7.8 46 80 4.5 40.2
19:50 1017 30.03 846 24.98 7.7 45.8 82 4.8 40.6
19:55 1017 30.03 846 24.98 7.6 45.7 84 5.1 41.1
20:00 1017 30.03 846 24.98 7.4 45.4 86 5.2 41.3
20:05 1017 30.03 846 24.98 7.5 45.4 86 5.2 41.4
20:10 1017 30.03 846 24.98 7.4 45.2 86 5.1 41.2
20:15 1017 30.03 846 24.98 7.3 45.1 85 4.9 40.9
20:20 1017 30.03 846 24.98 7.2 44.9 87 5.1 41.1
20:25 1017 30.03 846 24.98 7 44.6 87 5 41.1
20:30 1017 30.03 846 24.98 7 44.5 88 5 41.1
20:35 1017 30.03 846 24.98 6.9 44.4 88 5 41
20:40 1017 30.03 847 25.01 7 44.5 87 4.9 40.8
20:45 1018 30.06 847 25.01 7.1 44.7 86 4.9 40.9
20:50 1018 30.06 847 25.01 7.2 44.9 86 5 41
20:55 1018 30.06 847 25.01 7.2 44.9 87 5.2 41.4
21:00 1018 30.06 847 25.01 7.2 44.9 85 4.9 40.7
21:05 1018 30.06 847 25.01 7.3 45.1 86 5.1 41.2
21:10 1018 30.06 847 25.01 7.3 45.1 84 4.8 40.6
21:15 1018 30.06 847 25.01 7.3 45.1 85 4.9 40.8
21:20 1018 30.06 847 25.01 7.2 45 83 4.5 40.1
21:25 1018 30.06 847 25.01 7.3 45.2 84 4.8 40.6
21:30 1018 30.06 847 25.01 7.3 45.2 82 4.4 40
21:35 1018 30.06 847 25.01 7.4 45.3 84 4.9 40.8
21:40 1018 30.06 847 25.01 7.3 45.2 85 5 40.9
21:45 1018 30.06 847 25.01 7.3 45.1 84 4.7 40.5
21:50 1018 30.06 847 25.01 7.2 44.9 84 4.6 40.3
21:55 1018 30.06 847 25.01 7.1 44.8 85 4.7 40.5
22:00 1018 30.06 847 25.01 7.1 44.8 86 5 40.9
22:05 1018 30.06 847 25.01 7.1 44.9 87 5.2 41.3
22:10 1017 30.03 847 25.01 7.1 44.8 86 5 41
22:15 1017 30.03 847 25.01 7 44.6 87 5.1 41.1
22:20 1017 30.03 847 25.01 6.9 44.5 89 5.2 41.3
22:25 1017 30.03 846 24.98 6.9 44.4 89 5.2 41.3
22:30 1017 30.03 846 24.98 6.7 44.1 90 5.2 41.3
22:35 1017 30.03 846 24.98 6.6 43.9 90 5.1 41.3
22:40 1017 30.03 846 24.98 6.8 44.2 90 5.2 41.4
22:45 1017 30.03 846 24.98 6.8 44.2 90 5.2 41.4
22:50 1017 30.03 846 24.98 6.6 43.8 91 5.2 41.4
22:55 1017 30.03 846 24.98 6.5 43.7 91 5.1 41.2
23:00 1017 30.03 846 24.98 6.6 43.8 92 5.3 41.5
23:05 1017 30.03 846 24.98 6.6 43.9 92 5.4 41.7
23:10 1017 30.03 846 24.98 6.6 43.9 89 4.9 40.8
23:15 1017 30.03 846 24.98 6.8 44.3 87 4.8 40.6
23:20 1017 30.03 846 24.98 7 44.5 85 4.6 40.2
23:25 1017 30.03 846 24.98 7.1 44.7 87 5.1 41.2
23:30 1017 30.03 846 24.98 7 44.5 85 4.7 40.4
23:35 1017 30.03 846 24.98 7 44.7 87 5.1 41.1
23:40 1017 30.03 846 24.98 7.1 44.9 84 4.6 40.3
23:45 1017 30.03 846 24.98 7.2 44.9 85 4.7 40.5
23:50 1017 30.03 846 24.98 7.3 45.1 80 4 39.2
23:55 1017 30.03 846 24.98 7.4 45.3 80 4.1 39.4
24:00 1017 30.03 846 24.98 7.4 45.4 81 4.4 39.9